»·PEaware :: N645PC KNYL-KSAN

N645PC :: KNYL-KSAN

FLIGHT INFORMATION

Flight Status: Arrived
Operator: Privately registered:
United States
More flights under this callsign
Pilot: Armando C. (16967)
Aircraft: PILATUS PC-12 EAGLE
(PC12)
More flights by this aircraft type
Origin: KNYL Yuma MCAS/Yuma Intl
United States
Destination: KSAN San Diego Intl-Lindbergh
United States
More flights between these airports :: More routes between these airports
Route: ARAZI V66 RYAHH
File this flight plan on PilotEdge
Remarks:
Altitude:
(Current/Filed)
14,500ft
Speed:
(Current/Filed)
230kts
Departed: 24-Nov-17 07:17 AM
Arrived: 24-Nov-17 08:02 AM
Distance/Time
Traveled:
131nm/0:45
Distance/Time
To Go:
Arrived

Flight Plot

Page will automatically refresh every two minutes.

Flight plan parsing failed; only flown route is shown


Map Options




Map Legend


Flown Route
Filed Route
Departure Airport
Arrival Airport
Navaid (VOR, NDB)
Fix

Horizontal Profiles

Position Reports

Time Latitude Longitude Heading Altitude Ground
Speed
24-Nov-17 07:17 32.656667 -114.606167 231 219ft 0kts
24-Nov-17 07:18 32.656667 -114.606167 231 219ft 0kts
24-Nov-17 07:19 32.656666 -114.606168 231 219ft 0kts
24-Nov-17 07:20 32.656666 -114.606168 231 219ft 0kts
24-Nov-17 07:21 32.656666 -114.606168 231 219ft 0kts
24-Nov-17 07:22 32.652720 -114.610936 220 279ft 97kts
24-Nov-17 07:23 32.651407 -114.612276 217 387ft 96kts
24-Nov-17 07:24 32.687386 -114.646547 351 3414ft 168kts
24-Nov-17 07:25 32.731266 -114.666104 312 4959ft 176kts
24-Nov-17 07:26 32.764194 -114.709910 281 6448ft 188kts
24-Nov-17 07:27 32.765112 -114.773775 265 7977ft 198kts
24-Nov-17 07:28 32.763702 -114.839879 264 9487ft 199kts
24-Nov-17 07:29 32.762399 -114.905412 263 10983ft 198kts
24-Nov-17 07:30 32.761076 -114.970645 262 12486ft 197kts
24-Nov-17 07:31 32.759641 -115.035545 263 13992ft 194kts
24-Nov-17 07:32 32.758322 -115.098704 264 15490ft 188kts
24-Nov-17 07:33 32.756891 -115.161313 265 16495ft 201kts
24-Nov-17 07:34 32.755354 -115.231452 265 16493ft 215kts
24-Nov-17 07:35 32.753783 -115.302360 266 16495ft 215kts
24-Nov-17 07:36 32.752043 -115.373348 266 16499ft 214kts
24-Nov-17 07:37 32.750325 -115.443953 266 16501ft 214kts
24-Nov-17 07:38 32.749252 -115.514461 268 16502ft 214kts
24-Nov-17 07:39 32.750674 -115.585361 268 16498ft 214kts
24-Nov-17 07:40 32.752455 -115.656109 268 16498ft 214kts
24-Nov-17 07:41 32.754179 -115.726782 268 16500ft 214kts
24-Nov-17 07:42 32.755852 -115.797700 268 16500ft 214kts
24-Nov-17 07:43 32.757533 -115.868365 268 16500ft 214kts
24-Nov-17 07:44 32.759189 -115.939067 268 16501ft 214kts
24-Nov-17 07:45 32.760843 -116.009993 269 16505ft 214kts
24-Nov-17 07:46 32.762381 -116.081388 269 16148ft 222kts
24-Nov-17 07:47 32.763945 -116.154860 269 15150ft 222kts
24-Nov-17 07:48 32.765545 -116.228139 270 14148ft 220kts
24-Nov-17 07:49 32.767025 -116.300944 270 13151ft 221kts
24-Nov-17 07:50 32.768344 -116.374332 270 12154ft 224kts
24-Nov-17 07:51 32.769779 -116.448937 270 11153ft 224kts
24-Nov-17 07:52 32.771107 -116.521758 269 10152ft 218kts
24-Nov-17 07:53 32.772526 -116.592945 269 9152ft 213kts
24-Nov-17 07:54 32.773645 -116.663330 265 8147ft 212kts
24-Nov-17 07:55 32.767612 -116.733374 258 7150ft 214kts
24-Nov-17 07:56 32.755096 -116.802131 252 6152ft 212kts
24-Nov-17 07:57 32.734328 -116.867561 241 5157ft 209kts
24-Nov-17 07:58 32.694862 -116.916449 213 4186ft 205kts
24-Nov-17 07:59 32.675786 -116.955150 289 4032ft 117kts
24-Nov-17 08:00 32.685552 -116.992745 282 3882ft 126kts
24-Nov-17 08:01 32.694349 -117.028654 282 2937ft 99kts
24-Nov-17 08:02 32.701575 -117.058359 285 2156ft 90kts
24-Nov-17 08:03 32.708263 -117.085736 285 2000ft 86kts
24-Nov-17 08:04 32.715260 -117.114656 286 1559ft 92kts
24-Nov-17 08:05 32.722377 -117.143932 286 1054ft 91kts
24-Nov-17 08:06 32.729265 -117.172421 287 263ft 90kts
24-Nov-17 08:07 32.732180 -117.187455 256 18ft 6kts
24-Nov-17 08:08 32.732706 -117.190119 281 18ft 14kts
24-Nov-17 08:09 32.731933 -117.191013 96 18ft 0kts
24-Nov-17 08:10 32.731933 -117.191013 96 18ft 0kts
24-Nov-17 08:11 32.731933 -117.191013 96 18ft 0kts
24-Nov-17 08:12 32.731933 -117.191012 96 18ft 0kts
24-Nov-17 08:13 32.731933 -117.191012 96 18ft 0kts
24-Nov-17 08:14 32.731933 -117.191012 96 18ft 0kts
24-Nov-17 08:15 32.731933 -117.191011 96 18ft 0kts

Navigation Log

Ident Type
Flight plan parsing failed, navigation log unavailable